Weather at Jackpot Airport/Hayden Field

Public forecast

Using degrees Fahrenheit for public forecast. Weather courtesy of forecast.io.

Closest aviation weather report (METAR) to Jackpot Airport/Hayden Field

Closest report is Joslin Field Magic Valley Regional Airport, 31.3 nm (58.0 km) NNE. Retrieved 2021/01/28 07:53 UTC (21 minutes ago):

KTWF 280753Z AUTO 15012G31KT 10SM FEW120 03/M05 A2985 RMK AO2 PK WND 19034/0701 SLP104 T00331050

Closest aviation forecast (TAF) to Jackpot Airport/Hayden Field

Closest forecast is Joslin Field Magic Valley Regional Airport, 31.3 nm (58.0 km) NNE. Retrieved 2021/01/28 06:24 UTC (2 hours ago):

TAF KTWF 280521Z 2806/2906 17016G26KT P6SM OVC100 FM281000 17014G22KT P6SM VCSH OVC100 FM281600 12010KT P6SM OVC100